Time;durP1;ratioP1;P1;durP2;ratioP2;P2;SDS_P1;SDS_P2;PMS_P1;PMS_P2;Temp;Humidity;BMP_temperature;BMP_pressure;BME280_temperature;BME280_humidity;BME280_pressure;Samples;Min_cycle;Max_cycle;Signal;HPM_P1;HPM_P2
2022/01/15 00:00:16;;;;;;;14.90;3.50;;;6.10;99.90;;;;;;4947651;29;20040;-73
2022/01/15 00:02:42;;;;;;;18.85;4.68;;;6.10;99.90;;;;;;4947029;29;20075;-72
2022/01/15 00:05:09;;;;;;;11.73;3.30;;;6.10;99.90;;;;;;4947201;29;20942;-72
2022/01/15 00:07:34;;;;;;;29.17;4.90;;;6.10;99.90;;;;;;4947178;29;20036;-72
2022/01/15 00:10:00;;;;;;;27.27;3.70;;;6.10;99.90;;;;;;4946891;29;20040;-72
2022/01/15 00:12:25;;;;;;;12.98;4.05;;;6.10;99.90;;;;;;4947209;29;20110;-72
2022/01/15 00:14:53;;;;;;;7.15;2.53;;;6.10;99.90;;;;;;4947851;29;20028;-72
2022/01/15 00:17:31;;;;;;;11.90;3.45;;;6.10;99.90;;;;;;4950734;29;20692;-72
2022/01/15 00:19:57;;;;;;;33.70;6.05;;;6.10;99.90;;;;;;4950958;29;20023;-71
2022/01/15 00:22:23;;;;;;;7.82;2.63;;;6.10;99.90;;;;;;4966453;29;20065;-71
2022/01/15 00:24:49;;;;;;;13.05;3.60;;;6.10;99.90;;;;;;4970184;29;20408;-71
2022/01/15 00:27:15;;;;;;;15.57;3.53;;;6.10;99.90;;;;;;4970187;29;20067;-72
2022/01/15 00:29:41;;;;;;;13.32;3.25;;;6.00;99.90;;;;;;4969567;28;20039;-71
2022/01/15 00:32:08;;;;;;;16.02;3.53;;;6.00;99.90;;;;;;4969537;28;20126;-71
2022/01/15 00:34:34;;;;;;;13.35;5.13;;;6.00;99.90;;;;;;4969828;28;20035;-71
2022/01/15 00:37:00;;;;;;;10.55;3.83;;;6.00;99.90;;;;;;4969578;28;20034;-71
2022/01/15 00:39:26;;;;;;;19.48;4.35;;;6.00;99.90;;;;;;4969489;28;20033;-72
2022/01/15 00:41:52;;;;;;;19.08;3.90;;;6.00;99.90;;;;;;4969962;28;20087;-73
2022/01/15 00:44:18;;;;;;;10.32;4.45;;;6.00;99.90;;;;;;4969405;29;20476;-73
2022/01/15 00:46:47;;;;;;;5.07;2.15;;;6.00;99.90;;;;;;4969410;29;20031;-72
2022/01/15 00:49:12;;;;;;;12.00;3.28;;;5.90;99.90;;;;;;4969576;29;20035;-72
2022/01/15 00:51:39;;;;;;;9.13;2.80;;;5.90;99.90;;;;;;4968930;29;20078;-73
2022/01/15 00:54:04;;;;;;;24.63;3.55;;;5.90;99.90;;;;;;4950330;29;20528;-72
2022/01/15 00:56:30;;;;;;;40.20;5.35;;;5.80;99.90;;;;;;4950665;29;20035;-72
2022/01/15 00:58:56;;;;;;;13.98;3.10;;;5.80;99.90;;;;;;4949975;29;20034;-72
2022/01/15 01:01:22;;;;;;;6.85;2.83;;;5.80;99.90;;;;;;4949880;29;20023;-73
2022/01/15 01:03:49;;;;;;;17.42;4.15;;;5.70;99.90;;;;;;4965005;29;20059;-72
2022/01/15 01:06:16;;;;;;;15.20;3.80;;;5.70;99.90;;;;;;4949512;29;20032;-72
2022/01/15 01:08:45;;;;;;;40.13;5.18;;;5.70;99.90;;;;;;4949013;29;20035;-73
2022/01/15 01:11:13;;;;;;;19.80;2.67;;;5.70;99.90;;;;;;4950188;29;20039;-72
2022/01/15 01:20:02;;;;;;;24.70;2.67;;;5.70;99.90;;;;;;4948062;29;20036;-72
2022/01/15 01:24:38;;;;;;;9.70;2.08;;;5.50;99.90;;;;;;4949767;29;20083;-73
2022/01/15 01:27:15;;;;;;;21.98;3.83;;;5.40;99.90;;;;;;4948794;29;20536;-72
2022/01/15 01:32:25;;;;;;;56.67;5.25;;;5.40;99.90;;;;;;4949393;29;20051;-72
2022/01/15 01:34:52;;;;;;;34.05;4.63;;;5.40;99.90;;;;;;4949174;29;20074;-72
2022/01/15 01:37:29;;;;;;;11.40;2.67;;;5.40;99.90;;;;;;4964624;29;20031;-73
2022/01/15 01:40:07;;;;;;;5.13;2.20;;;5.50;99.90;;;;;;4948900;29;20059;-73
2022/01/15 01:42:42;;;;;;;8.18;2.65;;;5.50;99.90;;;;;;4949296;29;20024;-72
2022/01/15 01:45:13;;;;;;;26.83;4.43;;;5.50;99.90;;;;;;4949662;29;20764;-72
2022/01/15 01:47:41;;;;;;;8.55;2.53;;;5.50;99.90;;;;;;4948644;29;20523;-73
2022/01/15 01:50:20;;;;;;;22.50;2.88;;;5.50;99.90;;;;;;4949125;29;20071;-73
2022/01/15 01:52:50;;;;;;;5.95;2.25;;;5.50;99.90;;;;;;4949627;29;20051;-73
2022/01/15 01:55:18;;;;;;;11.90;2.22;;;5.50;99.90;;;;;;4948427;29;20040;-73
2022/01/15 01:57:45;;;;;;;5.47;2.95;;;5.60;99.90;;;;;;4949396;29;20027;-72
2022/01/15 02:00:16;;;;;;;11.80;1.95;;;5.60;99.90;;;;;;4949458;29;20067;-72
2022/01/15 02:02:42;;;;;;;16.20;2.10;;;5.60;99.90;;;;;;4948927;29;20051;-72
2022/01/15 02:05:09;;;;;;;7.03;1.83;;;5.70;99.90;;;;;;4947740;29;20024;-72
2022/01/15 02:07:35;;;;;;;30.73;3.17;;;5.70;99.90;;;;;;4948541;29;20027;-72
2022/01/15 02:10:08;;;;;;;4.22;1.75;;;5.70;99.90;;;;;;4948500;29;20112;-72
2022/01/15 02:12:34;;;;;;;29.17;2.97;;;5.70;99.90;;;;;;4949138;29;20024;-72
2022/01/15 02:15:20;;;;;;;6.53;2.15;;;5.70;99.90;;;;;;4948937;29;20031;-72
2022/01/15 02:17:47;;;;;;;2.63;1.30;;;5.70;99.90;;;;;;4949001;29;20488;-73
2022/01/15 02:25:57;;;;;;;5.78;1.95;;;5.70;99.90;;;;;;4968107;29;20063;-71
2022/01/15 02:28:29;;;;;;;20.10;1.65;;;5.70;99.90;;;;;;4967735;29;20026;-71
2022/01/15 02:30:58;;;;;;;8.35;2.30;;;5.60;99.90;;;;;;4966712;28;20083;-71
2022/01/15 02:33:24;;;;;;;41.53;4.10;;;5.60;99.90;;;;;;4967847;28;20046;-72
2022/01/15 02:35:50;;;;;;;5.90;2.67;;;5.60;99.90;;;;;;4967702;28;20043;-71
2022/01/15 02:38:16;;;;;;;50.20;5.07;;;5.60;99.90;;;;;;4966824;28;20078;-72
2022/01/15 02:40:42;;;;;;;85.03;4.68;;;5.60;99.90;;;;;;4967654;28;20031;-71
2022/01/15 02:43:12;;;;;;;7.13;2.33;;;5.60;99.90;;;;;;4962328;29;20051;-71
2022/01/15 02:45:42;;;;;;;8.18;2.63;;;5.60;99.90;;;;;;4948024;29;20032;-71
2022/01/15 02:48:13;;;;;;;31.73;3.47;;;5.60;99.90;;;;;;4948243;29;20024;-72
2022/01/15 02:50:41;;;;;;;33.55;3.85;;;5.60;99.90;;;;;;4966173;29;20050;-71
2022/01/15 02:53:08;;;;;;;34.70;3.30;;;5.50;99.90;;;;;;4967413;28;20027;-71
2022/01/15 02:55:34;;;;;;;4.90;1.98;;;5.50;99.90;;;;;;4967402;28;20038;-71
2022/01/15 02:57:59;;;;;;;7.80;2.83;;;5.50;99.90;;;;;;4965862;29;20039;-71
2022/01/15 03:00:27;;;;;;;26.65;2.13;;;5.60;99.90;;;;;;4967130;29;20118;-71
2022/01/15 03:02:53;;;;;;;6.50;2.58;;;5.50;99.90;;;;;;4967346;28;20023;-71
2022/01/15 03:05:20;;;;;;;7.07;1.75;;;5.50;99.90;;;;;;4966057;29;20023;-72
2022/01/15 03:07:46;;;;;;;3.40;1.80;;;5.50;99.90;;;;;;4966982;28;20023;-71
2022/01/15 03:10:12;;;;;;;6.63;1.63;;;5.40;99.90;;;;;;4966752;28;20047;-71
2022/01/15 03:12:37;;;;;;;4.78;1.50;;;5.50;99.90;;;;;;4966812;28;20027;-70
2022/01/15 03:15:06;;;;;;;3.45;1.55;;;5.50;99.90;;;;;;4967239;29;20479;-71
2022/01/15 03:17:32;;;;;;;3.80;1.67;;;5.50;99.90;;;;;;4965615;29;20027;-71
2022/01/15 03:19:58;;;;;;;5.93;2.00;;;5.50;99.90;;;;;;4966624;28;20042;-70
2022/01/15 03:22:24;;;;;;;13.43;2.35;;;5.60;99.90;;;;;;4966453;28;20107;-71
2022/01/15 03:24:50;;;;;;;4.90;2.35;;;5.50;99.90;;;;;;4965752;29;20039;-72
2022/01/15 03:27:17;;;;;;;50.67;2.70;;;5.50;99.90;;;;;;4947667;29;20032;-71
2022/01/15 03:29:46;;;;;;;6.90;1.35;;;5.40;99.90;;;;;;4953606;29;20043;-71
2022/01/15 03:32:13;;;;;;;5.55;2.08;;;5.40;99.90;;;;;;4965488;28;20455;-71
2022/01/15 03:34:38;;;;;;;9.43;2.70;;;5.40;99.90;;;;;;4966815;28;20027;-71
2022/01/15 03:37:04;;;;;;;6.45;3.22;;;5.40;99.90;;;;;;4966765;29;20031;-71
2022/01/15 03:39:30;;;;;;;5.30;1.83;;;5.40;99.90;;;;;;4965891;29;20402;-71
2022/01/15 03:41:55;;;;;;;4.47;1.80;;;5.40;99.90;;;;;;4966865;29;20031;-72
2022/01/15 03:44:21;;;;;;;4.07;2.08;;;5.60;99.90;;;;;;4966691;29;20035;-72
2022/01/15 03:46:47;;;;;;;3.40;1.48;;;5.40;99.90;;;;;;4966137;29;20039;-73
2022/01/15 03:49:13;;;;;;;7.28;2.35;;;5.50;99.90;;;;;;4966705;28;20082;-71
2022/01/15 03:51:38;;;;;;;7.30;2.70;;;5.50;99.90;;;;;;4966490;29;20111;-71
2022/01/15 03:54:04;;;;;;;9.57;2.95;;;5.50;99.90;;;;;;4965859;29;20031;-70
2022/01/15 03:56:32;;;;;;;5.75;1.88;;;5.50;99.90;;;;;;4965058;29;20031;-72
2022/01/15 03:58:58;;;;;;;5.93;2.30;;;5.50;99.90;;;;;;4966471;29;20032;-72
2022/01/15 04:01:23;;;;;;;5.18;2.10;;;5.60;99.90;;;;;;4966015;29;20028;-71
2022/01/15 04:03:49;;;;;;;10.55;2.63;;;5.50;99.90;;;;;;4966697;29;20027;-71
2022/01/15 04:06:15;;;;;;;7.75;2.08;;;5.50;99.90;;;;;;4966292;29;20039;-71
2022/01/15 04:08:41;;;;;;;4.70;2.42;;;5.60;99.90;;;;;;4966303;29;20167;-72
2022/01/15 04:11:06;;;;;;;6.13;2.38;;;5.60;99.90;;;;;;4966379;29;20047;-71
2022/01/15 04:13:32;;;;;;;13.38;3.45;;;5.70;99.90;;;;;;4966384;29;20036;-71
2022/01/15 04:16:00;;;;;;;3.42;1.35;;;5.60;99.90;;;;;;4966231;29;20037;-71
2022/01/15 04:18:28;;;;;;;12.95;1.85;;;5.60;99.90;;;;;;4966369;28;20019;-72
2022/01/15 04:20:56;;;;;;;11.27;2.85;;;5.60;99.90;;;;;;4966195;28;20033;-72
2022/01/15 04:23:22;;;;;;;60.80;3.47;;;5.60;99.90;;;;;;4964746;29;20036;-72
2022/01/15 04:25:47;;;;;;;9.88;2.28;;;5.60;99.90;;;;;;4965859;29;20111;-72
2022/01/15 04:28:13;;;;;;;12.60;2.03;;;5.60;99.90;;;;;;4966175;28;20042;-71
2022/01/15 04:30:41;;;;;;;8.85;2.65;;;5.70;99.90;;;;;;4965676;29;20043;-72
2022/01/15 04:33:07;;;;;;;7.20;3.15;;;5.60;99.90;;;;;;4966271;28;20031;-71
2022/01/15 04:35:32;;;;;;;5.57;2.45;;;5.70;99.90;;;;;;4965565;29;20038;-71
2022/01/15 04:38:06;;;;;;;9.57;2.90;;;5.60;99.90;;;;;;4965917;29;20059;-71
2022/01/15 04:40:31;;;;;;;26.23;3.80;;;5.60;99.90;;;;;;4966280;28;20042;-71
2022/01/15 04:42:57;;;;;;;11.35;2.25;;;5.70;99.90;;;;;;4964850;28;20035;-72
2022/01/15 04:45:23;;;;;;;33.92;3.92;;;5.60;99.90;;;;;;4966104;29;20031;-72
2022/01/15 04:47:48;;;;;;;27.42;2.40;;;5.50;99.90;;;;;;4966099;29;20019;-72
2022/01/15 04:50:20;;;;;;;9.25;2.97;;;5.60;99.90;;;;;;4965922;29;20596;-71
2022/01/15 04:52:47;;;;;;;10.73;2.75;;;5.50;99.90;;;;;;4966535;28;20122;-73
2022/01/15 04:55:14;;;;;;;19.10;2.33;;;5.60;99.90;;;;;;4965383;28;20063;-72
2022/01/15 04:57:41;;;;;;;30.13;3.25;;;5.50;99.90;;;;;;4965806;28;20032;-71
2022/01/15 05:00:10;;;;;;;43.42;3.15;;;5.60;99.90;;;;;;4966263;28;20019;-72
2022/01/15 05:02:36;;;;;;;24.25;4.32;;;5.60;99.90;;;;;;4967267;28;20032;-72
2022/01/15 05:05:02;;;;;;;16.60;2.40;;;5.60;99.90;;;;;;4969306;28;20078;-72
2022/01/15 05:07:27;;;;;;;42.88;4.60;;;5.60;99.90;;;;;;4969221;28;20030;-72
2022/01/15 05:09:53;;;;;;;66.50;4.93;;;5.60;99.90;;;;;;4968961;29;20050;-72
2022/01/15 05:12:31;;;;;;;15.77;3.33;;;5.60;99.90;;;;;;4969487;29;20384;-72
2022/01/15 05:14:57;;;;;;;44.65;4.28;;;5.60;99.90;;;;;;4969229;28;20027;-73
2022/01/15 05:17:23;;;;;;;52.35;4.80;;;5.60;99.90;;;;;;4968292;28;20481;-72
2022/01/15 05:19:49;;;;;;;82.40;6.05;;;5.70;99.90;;;;;;4969190;29;20034;-72
2022/01/15 05:22:15;;;;;;;12.23;4.20;;;5.70;99.90;;;;;;4968850;29;20125;-71
2022/01/15 05:24:41;;;;;;;10.07;3.20;;;5.70;99.90;;;;;;4968325;28;20054;-72
2022/01/15 05:27:07;;;;;;;19.75;2.83;;;5.60;99.90;;;;;;4968742;29;20047;-72
2022/01/15 05:29:33;;;;;;;15.52;3.97;;;5.60;99.90;;;;;;4968918;28;20063;-71
2022/01/15 05:31:58;;;;;;;23.02;5.03;;;5.60;99.90;;;;;;4968082;29;20055;-72
2022/01/15 05:34:24;;;;;;;10.25;3.78;;;5.60;99.90;;;;;;4969048;28;20519;-72
2022/01/15 05:36:50;;;;;;;32.45;5.07;;;5.60;99.90;;;;;;4968597;29;20035;-72
2022/01/15 05:39:16;;;;;;;39.17;5.05;;;5.60;99.90;;;;;;4967311;29;20062;-72
2022/01/15 05:41:41;;;;;;;35.00;4.30;;;5.70;99.90;;;;;;4968834;29;20042;-72
2022/01/15 05:44:07;;;;;;;17.00;5.03;;;5.50;99.90;;;;;;4968530;29;20027;-72
2022/01/15 05:46:34;;;;;;;23.98;2.78;;;5.60;99.90;;;;;;4967977;29;20114;-72
2022/01/15 05:49:01;;;;;;;20.25;3.30;;;5.60;99.90;;;;;;4968628;28;20029;-72
2022/01/15 05:51:29;;;;;;;51.90;4.78;;;5.60;99.90;;;;;;4968081;28;20039;-72
2022/01/15 05:54:03;;;;;;;41.58;3.90;;;5.60;99.90;;;;;;4968239;28;20388;-72
2022/01/15 05:56:29;;;;;;;;;;;5.60;99.90;;;;;;4968045;29;20051;-72
2022/01/15 05:58:55;;;;;;;20.77;3.00;;;5.60;99.90;;;;;;4968424;29;19910;-71
2022/01/15 06:01:23;;;;;;;29.02;4.47;;;5.60;99.90;;;;;;4982964;28;20027;-72
2022/01/15 06:03:48;;;;;;;8.05;3.58;;;5.70;99.90;;;;;;4968774;29;20059;-72
2022/01/15 06:06:14;;;;;;;19.08;4.03;;;5.70;99.90;;;;;;4968458;29;20035;-72
2022/01/15 06:08:40;;;;;;;21.15;4.63;;;5.70;99.90;;;;;;4967843;28;20034;-72
2022/01/15 06:11:05;;;;;;;47.40;5.07;;;5.70;99.90;;;;;;4967436;29;20039;-71
2022/01/15 06:13:31;;;;;;;44.20;4.72;;;5.80;99.90;;;;;;4967494;28;20094;-71
2022/01/15 06:15:57;;;;;;;39.38;5.47;;;5.80;99.90;;;;;;4966390;28;20031;-71
2022/01/15 06:18:22;;;;;;;17.98;3.78;;;5.80;99.90;;;;;;4963660;29;20388;-72
2022/01/15 06:20:50;;;;;;;48.30;4.53;;;5.70;99.90;;;;;;4947408;29;20030;-73
2022/01/15 06:23:16;;;;;;;21.70;4.85;;;5.80;99.90;;;;;;4953397;29;20038;-72
2022/01/15 06:25:42;;;;;;;15.93;4.15;;;5.80;99.90;;;;;;4968348;28;20448;-72
2022/01/15 06:28:08;;;;;;;34.30;6.88;;;5.80;99.90;;;;;;4967885;29;20038;-72
2022/01/15 06:30:33;;;;;;;29.73;3.78;;;5.90;99.90;;;;;;4967000;29;20050;-74
2022/01/15 06:32:59;;;;;;;53.47;4.38;;;5.80;99.90;;;;;;4967557;29;20455;-73
2022/01/15 06:35:24;;;;;;;33.50;3.90;;;5.80;99.90;;;;;;4967127;29;20038;-74
2022/01/15 06:37:52;;;;;;;7.55;2.85;;;5.80;99.90;;;;;;4954011;29;20036;-73
2022/01/15 06:40:17;;;;;;;18.40;3.78;;;5.90;99.90;;;;;;4948328;29;20059;-73
2022/01/15 06:42:44;;;;;;;14.68;3.90;;;5.80;99.90;;;;;;4947827;29;20027;-73
2022/01/15 06:45:10;;;;;;;14.38;4.63;;;5.70;99.90;;;;;;4954761;29;20023;-74
2022/01/15 06:47:36;;;;;;;11.35;4.03;;;5.70;99.90;;;;;;4967403;29;20108;-73
2022/01/15 06:50:05;;;;;;;7.88;3.53;;;5.70;99.90;;;;;;4967231;28;20059;-73
2022/01/15 06:52:38;;;;;;;25.25;5.72;;;5.70;99.90;;;;;;4967476;28;20052;-73
2022/01/15 06:55:05;;;;;;;11.97;4.37;;;5.70;99.90;;;;;;4966224;29;20027;-73
2022/01/15 06:57:31;;;;;;;13.25;3.65;;;5.70;99.90;;;;;;4967091;28;20029;-73
2022/01/15 06:59:57;;;;;;;10.20;3.70;;;5.70;99.90;;;;;;4967519;28;20024;-74
2022/01/15 07:02:23;;;;;;;8.63;2.42;;;5.70;99.90;;;;;;4966544;29;20391;-74
2022/01/15 07:04:49;;;;;;;27.63;3.65;;;5.70;99.90;;;;;;4967334;29;20020;-76
2022/01/15 07:07:15;;;;;;;34.58;3.15;;;5.60;99.90;;;;;;4967095;29;20106;-74
2022/01/15 07:09:41;;;;;;;47.30;4.70;;;5.50;99.90;;;;;;4966663;28;20042;-73
2022/01/15 07:12:07;;;;;;;20.70;3.58;;;5.60;99.90;;;;;;4967316;29;20031;-73
2022/01/15 07:14:32;;;;;;;34.13;3.92;;;5.50;99.90;;;;;;4967082;29;20040;-73
2022/01/15 07:16:58;;;;;;;6.57;1.98;;;5.50;99.90;;;;;;4966305;29;20545;-72
2022/01/15 07:19:24;;;;;;;6.93;2.90;;;5.40;99.90;;;;;;4967067;29;20108;-75
2022/01/15 07:21:50;;;;;;;15.32;3.85;;;5.40;99.90;;;;;;4963970;29;20031;-75
2022/01/15 07:24:18;;;;;;;8.25;2.78;;;5.30;99.90;;;;;;4960962;28;20471;-75
2022/01/15 07:26:44;;;;;;;8.88;3.38;;;5.40;99.90;;;;;;4961416;29;20041;-75
2022/01/15 07:29:15;;;;;;;7.30;3.30;;;5.30;99.90;;;;;;4960990;29;20047;-75
2022/01/15 07:31:42;;;;;;;28.15;3.33;;;5.50;99.90;;;;;;4957815;29;20483;-75
2022/01/15 07:34:08;;;;;;;28.95;3.67;;;5.40;99.90;;;;;;4960770;29;20023;-76
2022/01/15 07:36:34;;;;;;;16.52;8.20;;;5.40;99.90;;;;;;4961322;29;20024;-76
2022/01/15 07:39:00;;;;;;;15.43;3.80;;;5.50;99.90;;;;;;4975163;28;20397;-76
2022/01/15 07:41:26;;;;;;;51.92;5.00;;;5.50;99.90;;;;;;4960592;29;20031;-77
2022/01/15 07:43:51;;;;;;;17.63;4.05;;;5.50;99.90;;;;;;4961101;29;20035;-77
2022/01/15 07:46:18;;;;;;;14.15;3.90;;;5.50;99.90;;;;;;4960813;29;20106;-76
2022/01/15 07:48:43;;;;;;;8.15;2.83;;;5.40;99.90;;;;;;4961576;29;20031;-75
2022/01/15 07:51:09;;;;;;;13.82;2.97;;;5.50;99.90;;;;;;4959556;28;20050;-75
2022/01/15 07:53:35;;;;;;;87.45;4.30;;;5.50;99.90;;;;;;4962044;28;20038;-75
2022/01/15 07:56:01;;;;;;;11.35;3.13;;;5.50;99.90;;;;;;4964860;28;20035;-75
2022/01/15 07:58:27;;;;;;;11.90;3.10;;;5.50;99.90;;;;;;4965878;29;20034;-77
2022/01/15 08:00:52;;;;;;;53.28;6.25;;;5.50;99.90;;;;;;4964672;28;20091;-77
2022/01/15 08:03:20;;;;;;;35.88;4.70;;;5.60;99.90;;;;;;4964659;29;20078;-77
2022/01/15 08:05:46;;;;;;;59.30;6.38;;;5.50;99.90;;;;;;4963632;29;20032;-77
2022/01/15 08:08:12;;;;;;;13.35;3.60;;;5.50;99.90;;;;;;4964571;29;20074;-76
2022/01/15 08:10:37;;;;;;;65.13;4.25;;;5.50;99.90;;;;;;4954080;28;20522;-76
2022/01/15 08:13:03;;;;;;;18.38;4.38;;;5.60;99.90;;;;;;4946545;29;20083;-77
2022/01/15 08:15:29;;;;;;;20.45;3.78;;;5.60;99.90;;;;;;4946142;29;20032;-76
2022/01/15 08:17:55;;;;;;;32.88;4.82;;;5.60;99.90;;;;;;4953760;29;20027;-77
2022/01/15 08:20:22;;;;;;;26.52;5.32;;;5.60;99.90;;;;;;4962666;29;20091;-76
2022/01/15 08:22:51;;;;;;;22.23;4.68;;;5.70;99.90;;;;;;4963964;29;20023;-77
2022/01/15 08:25:20;;;;;;;58.85;5.47;;;5.70;99.90;;;;;;4963901;29;20443;-77
2022/01/15 08:27:46;;;;;;;15.35;4.97;;;5.70;99.90;;;;;;4965468;28;20039;-77
2022/01/15 08:30:12;;;;;;;35.45;5.25;;;5.80;99.90;;;;;;4964792;29;20131;-76
2022/01/15 08:32:38;;;;;;;14.35;4.55;;;5.80;99.90;;;;;;4965803;29;20043;-75
2022/01/15 08:35:08;;;;;;;31.02;5.05;;;5.80;99.90;;;;;;4964468;28;20055;-77
2022/01/15 08:37:38;;;;;;;9.88;4.22;;;5.90;99.90;;;;;;4969333;28;20086;-75
2022/01/15 08:40:08;;;;;;;8.70;3.78;;;5.90;99.90;;;;;;4968730;29;20023;-76
2022/01/15 08:42:38;;;;;;;18.80;4.88;;;5.90;99.90;;;;;;4969601;28;20119;-76
2022/01/15 08:45:07;;;;;;;36.17;4.45;;;6.00;99.90;;;;;;4970017;28;20067;-75
2022/01/15 08:47:33;;;;;;;67.72;3.92;;;6.00;99.90;;;;;;4969353;28;20055;-76
2022/01/15 08:50:02;;;;;;;16.17;3.72;;;6.10;99.90;;;;;;4969281;29;20047;-76
2022/01/15 08:52:27;;;;;;;28.75;5.28;;;6.00;99.90;;;;;;4967472;29;20051;-76
2022/01/15 08:54:53;;;;;;;28.75;6.05;;;6.00;99.90;;;;;;4966772;29;20028;-76
2022/01/15 08:57:19;;;;;;;7.50;3.75;;;6.10;99.90;;;;;;4968291;29;20020;-76
2022/01/15 08:59:51;;;;;;;14.75;6.13;;;6.10;99.90;;;;;;4967957;29;20027;-76
2022/01/15 09:02:18;;;;;;;37.00;7.68;;;6.10;99.90;;;;;;4966993;29;20035;-75
2022/01/15 09:04:44;;;;;;;34.42;5.22;;;6.20;99.90;;;;;;4967959;29;20020;-76
2022/01/15 09:07:10;;;;;;;6.78;3.10;;;6.20;99.90;;;;;;4967203;28;20043;-75
2022/01/15 09:09:36;;;;;;;9.95;3.92;;;6.20;99.90;;;;;;4968775;28;20111;-76
2022/01/15 09:12:01;;;;;;;20.10;6.28;;;6.20;99.90;;;;;;4969275;29;20027;-76
2022/01/15 09:14:27;;;;;;;9.43;3.97;;;6.20;99.90;;;;;;4967901;29;20051;-76
2022/01/15 09:16:52;;;;;;;40.60;4.85;;;6.30;99.90;;;;;;4968828;29;20024;-75
2022/01/15 09:19:18;;;;;;;10.45;4.03;;;6.30;99.90;;;;;;4968905;29;20051;-77
2022/01/15 09:21:44;;;;;;;8.18;3.83;;;6.30;99.90;;;;;;4966303;29;20024;-75
2022/01/15 09:24:10;;;;;;;7.13;3.95;;;6.30;99.90;;;;;;4967267;29;20042;-75
2022/01/15 09:31:58;;;;;;;12.35;4.57;;;6.40;99.90;;;;;;4948397;29;20051;-76
2022/01/15 09:34:25;;;;;;;7.57;2.65;;;6.40;99.90;;;;;;4967455;29;20031;-75
2022/01/15 09:36:51;;;;;;;12.07;3.20;;;6.30;99.90;;;;;;4968154;28;20031;-76
2022/01/15 09:39:19;;;;;;;12.45;5.05;;;6.40;99.90;;;;;;4982063;28;20062;-76
2022/01/15 09:41:48;;;;;;;16.40;5.97;;;6.40;99.90;;;;;;4967453;28;20027;-76
2022/01/15 09:44:19;;;;;;;9.45;2.78;;;6.50;99.90;;;;;;4983145;28;20444;-76
2022/01/15 09:46:47;;;;;;;9.35;3.33;;;6.50;99.90;;;;;;4967270;28;20027;-74
2022/01/15 09:49:16;;;;;;;10.73;3.20;;;6.50;99.90;;;;;;4968110;28;20045;-75
2022/01/15 09:51:43;;;;;;;10.23;4.60;;;6.50;99.90;;;;;;4966393;29;20053;-75
2022/01/15 09:54:11;;;;;;;9.88;4.32;;;6.50;99.90;;;;;;4967397;28;20031;-77
2022/01/15 09:56:37;;;;;;;6.18;2.97;;;6.50;99.90;;;;;;4966712;29;20114;-76
2022/01/15 09:59:03;;;;;;;16.02;4.70;;;6.60;99.90;;;;;;4968272;28;20468;-76
2022/01/15 10:01:31;;;;;;;18.38;4.15;;;6.70;99.90;;;;;;4968298;28;20031;-75
2022/01/15 10:03:57;;;;;;;10.40;4.20;;;6.80;99.90;;;;;;4967959;28;20087;-75
2022/01/15 10:06:23;;;;;;;24.27;6.00;;;6.80;99.90;;;;;;4968157;28;20055;-76
2022/01/15 10:09:07;;;;;;;13.90;4.45;;;6.80;99.90;;;;;;4968360;29;20038;-76
2022/01/15 10:11:58;;;;;;;20.95;5.68;;;6.80;99.90;;;;;;4946980;29;20071;-76
2022/01/15 10:14:31;;;;;;;14.20;5.13;;;6.80;99.90;;;;;;4962340;29;20043;-76
2022/01/15 10:17:01;;;;;;;18.75;4.20;;;6.90;99.90;;;;;;4967426;28;20034;-76
2022/01/15 10:19:34;;;;;;;23.27;5.28;;;7.00;99.90;;;;;;4982118;28;20503;-75
2022/01/15 10:22:08;;;;;;;10.63;4.07;;;7.10;99.90;;;;;;4967756;28;20104;-76
2022/01/15 10:24:35;;;;;;;14.95;4.07;;;7.20;99.90;;;;;;4966826;29;20028;-75
2022/01/15 10:27:33;;;;;;;12.10;5.32;;;7.20;99.90;;;;;;4965120;29;20027;-76
2022/01/15 10:30:02;;;;;;;12.40;4.38;;;7.20;99.90;;;;;;4965943;29;20046;-77
2022/01/15 10:32:32;;;;;;;15.45;4.40;;;7.30;99.90;;;;;;4964418;28;20109;-76
2022/01/15 10:34:58;;;;;;;8.32;4.00;;;7.30;99.90;;;;;;4966832;28;20027;-75
2022/01/15 10:37:27;;;;;;;12.30;4.32;;;7.40;99.90;;;;;;4965126;28;20114;-76
2022/01/15 10:40:04;;;;;;;19.05;5.25;;;7.50;99.90;;;;;;4964926;29;20031;-75
2022/01/15 10:42:30;;;;;;;21.67;5.38;;;7.60;99.90;;;;;;4965895;28;20039;-75
2022/01/15 10:44:58;;;;;;;11.07;5.63;;;7.80;99.90;;;;;;4966428;28;20031;-74
2022/01/15 10:47:27;;;;;;;16.85;5.30;;;8.30;99.90;;;;;;4965800;29;20015;-75
2022/01/15 10:49:58;;;;;;;10.80;5.43;;;8.50;99.90;;;;;;4966197;28;20039;-77
2022/01/15 10:52:25;;;;;;;14.55;5.03;;;8.50;99.90;;;;;;4980624;28;20031;-74
2022/01/15 10:55:08;;;;;;;13.00;5.20;;;8.70;99.90;;;;;;4965576;28;20027;-73
2022/01/15 10:57:37;;;;;;;14.00;5.88;;;9.10;99.90;;;;;;4965200;28;20023;-73
2022/01/15 11:00:08;;;;;;;14.43;5.22;;;9.70;99.90;;;;;;4964167;28;20094;-73
2022/01/15 11:02:34;;;;;;;15.35;5.30;;;10.10;99.90;;;;;;4965606;29;20099;-75
2022/01/15 11:05:02;;;;;;;20.67;6.10;;;10.00;99.90;;;;;;4967531;28;20054;-73
2022/01/15 11:07:36;;;;;;;17.80;5.78;;;9.70;99.90;;;;;;4966415;28;20025;-74
2022/01/15 11:10:04;;;;;;;19.65;5.40;;;9.50;99.90;;;;;;4966128;28;20039;-74
2022/01/15 11:12:30;;;;;;;12.82;5.97;;;9.40;99.90;;;;;;4967162;28;20027;-74
2022/01/15 11:14:56;;;;;;;11.95;4.72;;;10.00;99.90;;;;;;4966000;28;20117;-73
2022/01/15 11:17:22;;;;;;;22.98;6.28;;;10.30;99.90;;;;;;4965860;29;20031;-75
2022/01/15 11:19:53;;;;;;;23.33;5.40;;;10.20;99.90;;;;;;4966262;29;20058;-73
2022/01/15 11:22:22;;;;;;;16.58;6.43;;;10.20;99.90;;;;;;4965267;28;20027;-73
2022/01/15 11:24:50;;;;;;;14.40;6.50;;;10.40;99.90;;;;;;4966516;28;20030;-73
2022/01/15 11:27:21;;;;;;;14.50;5.43;;;10.90;99.90;;;;;;4977821;28;20103;-77
2022/01/15 11:29:49;;;;;;;14.50;5.85;;;11.70;99.90;;;;;;4964167;29;20043;-77
2022/01/15 11:32:16;;;;;;;20.70;6.85;;;12.40;99.90;;;;;;4960225;29;20055;-77
2022/01/15 11:35:05;;;;;;;18.42;6.30;;;12.60;99.90;;;;;;4964666;29;20043;-75
2022/01/15 11:37:49;;;;;;;25.02;8.00;;;12.40;99.90;;;;;;4965458;29;20082;-74
2022/01/15 11:40:45;;;;;;;20.13;8.75;;;12.00;99.90;;;;;;4966506;28;20031;-76
2022/01/15 11:43:33;;;;;;;27.80;10.73;;;11.50;99.90;;;;;;4965413;28;20035;-74
2022/01/15 11:46:04;;;;;;;19.80;7.80;;;11.10;99.90;;;;;;4966908;28;20023;-75
2022/01/15 11:48:35;;;;;;;17.58;6.88;;;10.80;99.90;;;;;;4967003;28;20027;-75
2022/01/15 11:51:19;;;;;;;16.08;7.30;;;10.50;99.90;;;;;;4964825;29;20047;-75
2022/01/15 11:53:54;;;;;;;17.40;7.20;;;10.30;99.90;;;;;;4966902;29;20020;-75
2022/01/15 11:56:24;;;;;;;18.40;6.85;;;10.20;99.90;;;;;;4964180;29;20497;-75
2022/01/15 11:58:53;;;;;;;16.02;6.18;;;10.00;99.90;;;;;;4964466;29;20024;-75
2022/01/15 12:01:43;;;;;;;20.35;7.85;;;9.90;99.90;;;;;;4965309;29;20038;-75
2022/01/15 12:04:26;;;;;;;18.42;5.97;;;9.70;99.90;;;;;;4964096;28;20040;-74
2022/01/15 12:07:07;;;;;;;22.27;7.13;;;9.60;99.90;;;;;;4964530;29;20035;-75
2022/01/15 12:09:34;;;;;;;18.25;5.95;;;9.60;99.90;;;;;;4972099;28;20038;-75
2022/01/15 12:12:00;;;;;;;24.75;5.82;;;9.60;99.90;;;;;;4984757;28;20075;-75
2022/01/15 12:14:59;;;;;;;27.98;6.18;;;9.70;99.90;;;;;;4970407;28;20023;-76
2022/01/15 12:17:31;;;;;;;12.07;4.38;;;9.80;99.90;;;;;;4957585;29;20039;-76
2022/01/15 12:19:59;;;;;;;15.73;2.78;;;10.40;99.90;;;;;;4982638;28;20131;-75
2022/01/15 12:22:45;;;;;;;12.68;3.50;;;11.00;99.90;;;;;;4969157;28;20700;-75
2022/01/15 12:25:17;;;;;;;9.38;4.13;;;11.70;99.90;;;;;;4969644;28;20511;-73
2022/01/15 12:27:58;;;;;;;10.35;3.05;;;12.00;99.90;;;;;;4969809;29;20035;-74
2022/01/15 12:30:27;;;;;;;6.25;2.08;;;11.60;99.90;;;;;;4968561;28;20095;-74
2022/01/15 12:32:56;;;;;;;11.50;2.85;;;11.30;99.90;;;;;;4969092;28;20051;-74
2022/01/15 12:35:25;;;;;;;4.15;1.65;;;11.40;99.90;;;;;;4968477;29;20032;-76
2022/01/15 12:38:01;;;;;;;17.02;2.55;;;11.70;99.90;;;;;;4966289;28;20042;-75
2022/01/15 12:40:29;;;;;;;10.27;2.13;;;12.10;99.90;;;;;;4967427;29;20031;-74
2022/01/15 12:43:00;;;;;;;7.65;1.95;;;12.60;99.90;;;;;;4969838;28;20057;-74
2022/01/15 12:45:27;;;;;;;5.30;1.40;;;12.90;99.90;;;;;;4968675;28;20058;-74
2022/01/15 12:48:04;;;;;;;16.58;2.25;;;13.10;99.90;;;;;;4968706;28;20031;-75
2022/01/15 12:50:42;;;;;;;5.25;2.20;;;13.30;99.90;;;;;;4966738;29;20116;-75
2022/01/15 12:53:07;;;;;;;5.65;1.98;;;13.40;99.90;;;;;;4981643;28;20031;-76
2022/01/15 12:55:36;;;;;;;11.70;4.72;;;13.50;99.90;;;;;;4969473;29;20402;-76
2022/01/15 12:58:04;;;;;;;3.92;2.10;;;13.60;99.90;;;;;;4968248;29;20031;-76
2022/01/15 13:00:33;;;;;;;4.35;2.03;;;13.90;99.90;;;;;;4966955;29;20028;-74
2022/01/15 13:03:13;;;;;;;9.75;2.88;;;14.30;99.90;;;;;;4968777;28;20019;-76
2022/01/15 13:05:45;;;;;;;11.18;3.10;;;14.30;99.90;;;;;;4968853;28;20027;-75
2022/01/15 13:08:15;;;;;;;14.32;2.17;;;14.40;99.90;;;;;;4967096;28;20023;-78
2022/01/15 13:10:57;;;;;;;4.93;1.80;;;14.70;99.90;;;;;;4969100;28;20047;-75
2022/01/15 13:13:32;;;;;;;10.68;1.77;;;14.80;99.90;;;;;;4967077;28;20019;-76
2022/01/15 13:16:06;;;;;;;7.13;2.35;;;15.10;99.90;;;;;;4968238;28;20146;-75